createdAt,value
2022-10-10T00:00:07.476Z,4.43
2022-10-10T00:05:11.095Z,4.47
2022-10-10T00:10:16.002Z,5.03
2022-10-10T00:15:19.979Z,4.82
2022-10-10T00:20:23.632Z,4.50
2022-10-10T00:25:34.520Z,4.72
2022-10-10T00:30:37.808Z,4.88
2022-10-10T00:35:41.757Z,4.63
2022-10-10T00:40:55.294Z,4.30
2022-10-10T00:45:59.202Z,4.20
2022-10-10T00:51:05.250Z,4.38
2022-10-10T00:56:11.887Z,5.18
2022-10-10T01:01:15.816Z,5.32
2022-10-10T01:06:22.071Z,5.63
2022-10-10T01:11:46.147Z,5.25
2022-10-10T01:16:59.864Z,4.85
2022-10-10T01:22:15.367Z,5.28
2022-10-10T01:27:31.662Z,5.55
2022-10-10T01:32:44.364Z,5.00
2022-10-10T01:37:54.032Z,4.95
2022-10-10T01:42:59.773Z,5.72
2022-10-10T01:48:12.736Z,4.78
2022-10-10T01:53:22.197Z,4.63
2022-10-10T01:58:59.795Z,4.55
2022-10-10T02:04:10.728Z,4.35
2022-10-10T02:09:21.209Z,4.32
2022-10-10T02:14:28.871Z,4.15
2022-10-10T02:19:33.949Z,4.93
2022-10-10T02:24:37.741Z,5.25
2022-10-10T02:29:44.906Z,4.47
2022-10-10T02:34:57.271Z,4.53
2022-10-10T02:40:04.683Z,4.07
2022-10-10T02:45:09.119Z,4.25
2022-10-10T02:50:13.771Z,4.75
2022-10-10T02:55:17.166Z,4.70
2022-10-10T03:00:21.022Z,4.20
2022-10-10T03:05:25.754Z,4.78
2022-10-10T03:10:31.218Z,4.53
2022-10-10T03:15:34.556Z,4.70
2022-10-10T03:20:43.307Z,5.18
2022-10-10T03:25:46.877Z,4.32
2022-10-10T03:30:50.666Z,4.90
2022-10-10T03:35:55.505Z,4.20
2022-10-10T03:41:02.498Z,4.72
2022-10-10T03:46:06.219Z,3.85
2022-10-10T03:51:11.183Z,4.20
2022-10-10T04:01:47.309Z,3.67
2022-10-10T04:06:52.273Z,4.05
2022-10-10T04:11:55.735Z,3.83
2022-10-10T04:17:06.183Z,3.67
2022-10-10T04:22:25.906Z,4.00
2022-10-10T04:27:31.924Z,4.57
2022-10-10T04:32:39.550Z,4.22
2022-10-10T04:37:53.909Z,4.75
2022-10-10T04:42:57.246Z,4.32
2022-10-10T04:48:05.293Z,4.60
2022-10-10T04:53:18.208Z,4.07
2022-10-10T04:58:29.305Z,4.82
2022-10-10T05:03:39.206Z,3.85
2022-10-10T05:08:48.367Z,4.40
2022-10-10T05:14:04.271Z,4.35
2022-10-10T05:19:07.711Z,4.70
2022-10-10T05:24:12.418Z,4.70
2022-10-10T05:29:15.898Z,4.60
2022-10-10T05:34:19.188Z,4.35
2022-10-10T05:39:24.087Z,5.25
2022-10-10T05:44:27.518Z,4.90
2022-10-10T05:49:30.769Z,4.93
2022-10-10T05:54:35.490Z,5.28
2022-10-10T05:59:38.698Z,4.85
2022-10-10T06:04:42.035Z,5.07
2022-10-10T06:09:46.976Z,5.18
2022-10-10T06:14:50.397Z,5.32
2022-10-10T06:19:53.771Z,5.38
2022-10-10T06:24:58.554Z,4.78
2022-10-10T06:30:07.229Z,4.80
2022-10-10T06:35:10.917Z,4.10
2022-10-10T06:40:15.601Z,3.72
2022-10-10T06:45:18.840Z,4.00
2022-10-10T06:50:22.051Z,4.50
2022-10-10T06:55:26.710Z,5.30
2022-10-10T07:00:30.016Z,4.53
2022-10-10T07:05:33.830Z,4.53
2022-10-10T07:10:38.406Z,4.57
2022-10-10T07:15:41.671Z,4.32
2022-10-10T07:20:44.912Z,3.97
2022-10-10T07:25:49.500Z,4.53
2022-10-10T07:30:52.653Z,4.00
2022-10-10T07:35:56.071Z,4.18
2022-10-10T07:41:00.758Z,4.22
2022-10-10T07:46:12.175Z,3.58
2022-10-10T07:51:19.005Z,3.90
2022-10-10T07:56:23.856Z,3.53
2022-10-10T08:01:27.981Z,3.35
2022-10-10T08:06:31.457Z,3.50
2022-10-10T08:11:36.153Z,3.25
2022-10-10T08:16:40.750Z,3.72
2022-10-10T08:21:44.472Z,3.63
2022-10-10T08:26:50.968Z,3.55
2022-10-10T08:31:54.227Z,3.17
2022-10-10T08:36:57.581Z,3.78
2022-10-10T08:42:03.494Z,3.35
2022-10-10T08:47:17.232Z,3.47
2022-10-10T08:52:31.593Z,3.70
2022-10-10T08:57:44.928Z,3.42
2022-10-10T09:02:55.172Z,3.08
2022-10-10T09:08:26.656Z,2.75
2022-10-10T09:13:38.258Z,2.78
2022-10-10T09:18:52.688Z,2.58
2022-10-10T09:24:01.459Z,2.42
2022-10-10T09:29:24.861Z,2.65
2022-10-10T09:34:35.636Z,3.00
2022-10-10T09:39:44.164Z,2.47
2022-10-10T09:44:48.853Z,2.80
2022-10-10T09:49:52.176Z,2.60
2022-10-10T09:55:00.711Z,2.03
2022-10-10T10:00:28.414Z,1.83
2022-10-10T10:05:38.581Z,2.03
2022-10-10T10:10:42.066Z,1.95
2022-10-10T10:15:52.942Z,2.00
2022-10-10T10:21:13.090Z,2.08
2022-10-10T10:26:19.872Z,1.95
2022-10-10T10:31:45.257Z,2.38
2022-10-10T10:36:55.610Z,2.47
2022-10-10T10:42:05.750Z,2.28
2022-10-10T10:47:30.322Z,2.25
2022-10-10T10:52:48.435Z,2.42
2022-10-10T11:05:16.364Z,2.42
2022-10-10T11:09:49.029Z,2.22
2022-10-10T11:14:59.256Z,1.38
2022-10-10T11:20:09.908Z,1.90
2022-10-10T11:25:22.140Z,1.90
2022-10-10T11:30:27.705Z,1.80
2022-10-10T11:35:42.019Z,1.70
2022-10-10T11:40:56.539Z,2.20
2022-10-10T11:46:06.643Z,1.63
2022-10-10T11:51:21.015Z,1.52
2022-10-10T12:02:01.584Z,2.42
2022-10-10T12:07:12.822Z,2.03
2022-10-10T12:12:22.296Z,1.83
2022-10-10T12:17:29.907Z,2.60
2022-10-10T12:22:36.074Z,1.90
2022-10-10T12:27:47.585Z,2.63
2022-10-10T12:32:54.364Z,2.65
2022-10-10T12:38:20.651Z,1.98
2022-10-10T12:43:26.481Z,1.70
2022-10-10T12:48:29.747Z,1.80
2022-10-10T12:53:35.675Z,1.60
2022-10-10T12:58:40.838Z,1.75
2022-10-10T13:03:50.087Z,1.90
2022-10-10T13:08:56.081Z,2.38
2022-10-10T13:14:00.925Z,1.75
2022-10-10T13:19:04.606Z,2.25
2022-10-10T13:24:16.157Z,2.33
2022-10-10T13:29:29.148Z,1.75
2022-10-10T13:34:34.305Z,2.08
2022-10-10T13:39:41.056Z,2.72
2022-10-10T13:44:52.962Z,1.80
2022-10-10T13:49:57.482Z,2.97
2022-10-10T13:55:23.470Z,1.83
2022-10-10T14:00:30.587Z,2.00
2022-10-10T14:05:33.968Z,1.80
2022-10-10T14:10:39.188Z,1.90
2022-10-10T14:15:46.858Z,1.70
2022-10-10T14:20:50.819Z,1.50
2022-10-10T14:25:55.528Z,1.95
2022-10-10T14:30:59.419Z,2.30
2022-10-10T14:36:02.867Z,1.85
2022-10-10T14:41:08.790Z,2.15
2022-10-10T14:46:18.613Z,1.60
2022-10-10T14:51:33.728Z,1.30
2022-10-10T14:57:07.105Z,1.70
2022-10-10T15:02:05.750Z,1.60
2022-10-10T15:07:14.899Z,1.45
2022-10-10T15:12:20.015Z,1.73
2022-10-10T15:17:24.512Z,1.45
2022-10-10T15:22:30.134Z,1.30
2022-10-10T15:27:35.440Z,1.80
2022-10-10T15:32:42.412Z,1.50
2022-10-10T15:37:47.806Z,1.80
2022-10-10T15:42:52.831Z,1.88
2022-10-10T15:47:56.065Z,2.13
2022-10-10T15:52:59.348Z,1.35
2022-10-10T15:58:04.683Z,2.15
2022-10-10T16:03:08.475Z,1.50
2022-10-10T16:08:12.555Z,1.58
2022-10-10T16:13:17.224Z,1.92
2022-10-10T16:18:21.503Z,1.38
2022-10-10T16:23:29.472Z,1.27
2022-10-10T16:28:54.537Z,2.10
2022-10-10T16:33:59.909Z,1.92
2022-10-10T16:39:04.124Z,1.90
2022-10-10T16:44:08.886Z,1.70
2022-10-10T16:49:16.367Z,1.73
2022-10-10T16:54:19.747Z,1.52
2022-10-10T16:59:25.789Z,1.63
2022-10-10T17:04:31.136Z,1.70
2022-10-10T17:09:35.039Z,2.10
2022-10-10T17:14:41.825Z,2.40
2022-10-10T17:19:49.352Z,2.10
2022-10-10T17:24:52.641Z,2.13
2022-10-10T17:29:58.521Z,2.58
2022-10-10T17:35:01.845Z,1.77
2022-10-10T17:40:05.782Z,1.77
2022-10-10T17:45:11.408Z,1.85
2022-10-10T17:50:14.785Z,1.88
2022-10-10T17:55:18.489Z,1.65
2022-10-10T18:00:28.164Z,1.90
2022-10-10T18:05:31.806Z,2.88
2022-10-10T18:10:36.243Z,2.10
2022-10-10T18:15:41.968Z,1.60
2022-10-10T18:20:46.344Z,2.17
2022-10-10T18:25:49.763Z,2.63
2022-10-10T18:30:54.489Z,2.75
2022-10-10T18:35:57.843Z,2.03
2022-10-10T18:41:08.974Z,2.70
2022-10-10T18:46:15.018Z,2.25
2022-10-10T18:51:22.373Z,2.58
2022-10-10T18:56:25.774Z,3.10
2022-10-10T19:01:33.599Z,2.67
2022-10-10T19:06:38.338Z,3.47
2022-10-10T19:11:44.494Z,2.63
2022-10-10T19:16:50.259Z,3.38
2022-10-10T19:21:53.792Z,3.47
2022-10-10T19:26:58.147Z,2.90
2022-10-10T19:32:04.771Z,3.10
2022-10-10T19:42:36.494Z,2.30
2022-10-10T19:47:41.319Z,3.00
2022-10-10T19:52:45.243Z,2.97
2022-10-10T19:57:48.782Z,3.55
2022-10-10T20:02:53.693Z,4.38
2022-10-10T20:07:57.233Z,3.30
2022-10-10T20:13:00.679Z,3.17
2022-10-10T20:18:06.624Z,4.20
2022-10-10T20:23:22.872Z,3.90
2022-10-10T20:28:26.406Z,3.97
2022-10-10T20:33:31.712Z,4.50
2022-10-10T20:38:35.384Z,2.90
2022-10-10T20:43:41.923Z,3.67
2022-10-10T20:48:47.304Z,4.00
2022-10-10T20:53:57.539Z,4.18
2022-10-10T20:59:02.707Z,4.05
2022-10-10T21:04:15.664Z,4.75
2022-10-10T21:09:23.859Z,4.43
2022-10-10T21:14:27.150Z,4.35
2022-10-10T21:19:33.291Z,4.82
2022-10-10T21:24:36.973Z,4.88
2022-10-10T21:29:43.283Z,4.90
2022-10-10T21:34:48.020Z,4.55
2022-10-10T21:39:51.561Z,4.35
2022-10-10T21:44:56.223Z,5.05
2022-10-10T21:50:05.561Z,4.75
2022-10-10T21:55:09.871Z,4.30
2022-10-10T22:00:15.468Z,4.72
2022-10-10T22:05:21.329Z,4.10
2022-10-10T22:10:28.894Z,4.43
2022-10-10T22:15:33.025Z,4.35
2022-10-10T22:20:42.689Z,4.97
2022-10-10T22:25:52.827Z,4.50
2022-10-10T22:30:56.546Z,3.30
2022-10-10T22:36:02.055Z,3.33
2022-10-10T22:41:05.636Z,3.30
2022-10-10T22:46:09.554Z,3.00
2022-10-10T22:51:17.421Z,3.33
2022-10-10T22:56:22.064Z,3.10
2022-10-10T23:01:27.359Z,3.00
2022-10-10T23:06:33.323Z,2.80
2022-10-10T23:11:36.965Z,3.20
2022-10-10T23:16:40.988Z,2.78
2022-10-10T23:21:45.737Z,3.20
2022-10-10T23:26:49.222Z,3.67
2022-10-10T23:31:52.474Z,3.28
2022-10-10T23:36:57.387Z,3.08
2022-10-10T23:42:00.728Z,3.00
2022-10-10T23:47:04.251Z,3.33
2022-10-10T23:52:21.278Z,3.05
2022-10-10T23:57:28.915Z,3.10
